ADDS TAF Data INFO
IDs: Format: Raw Decoded Include METARs

Data at: 0718 UTC 24 Jun 2018

KPGD 240520Z 2406/2506 VRB03KT P6SM FEW040 SCT250
  FM241500 04005KT P6SM SCT030 SCT100
  FM241800 27008KT P6SM VCTS SCT035CB BKN100
  FM250200 VRB03KT P6SM FEW040 BKN100